sensor_id;sensor_type;location;lat;lon;timestamp;P1;durP1;ratioP1;P2;durP2;ratioP2
60336;SDS011;46978;50.288;28.624;2022-10-13T00:00:09;24.42;;;12.85;;
60336;SDS011;46978;50.288;28.624;2022-10-13T00:01:12;21.59;;;12.99;;
60336;SDS011;46978;50.288;28.624;2022-10-13T00:02:16;24.67;;;13.45;;
60336;SDS011;46978;50.288;28.624;2022-10-13T00:03:18;21.37;;;12.54;;
60336;SDS011;46978;50.288;28.624;2022-10-13T00:04:20;25.07;;;13.13;;
60336;SDS011;46978;50.288;28.624;2022-10-13T00:05:22;22.07;;;12.50;;
60336;SDS011;46978;50.288;28.624;2022-10-13T00:06:24;25.23;;;13.45;;
60336;SDS011;46978;50.288;28.624;2022-10-13T00:07:27;22.79;;;12.96;;
60336;SDS011;46978;50.288;28.624;2022-10-13T00:08:28;22.74;;;12.01;;
60336;SDS011;46978;50.288;28.624;2022-10-13T00:09:30;24.82;;;13.59;;
60336;SDS011;46978;50.288;28.624;2022-10-13T00:10:34;19.15;;;12.58;;
60336;SDS011;46978;50.288;28.624;2022-10-13T00:11:37;22.56;;;13.70;;
60336;SDS011;46978;50.288;28.624;2022-10-13T00:12:39;26.02;;;12.88;;
60336;SDS011;46978;50.288;28.624;2022-10-13T00:13:41;23.08;;;12.66;;
60336;SDS011;46978;50.288;28.624;2022-10-13T00:14:44;21.91;;;13.09;;
60336;SDS011;46978;50.288;28.624;2022-10-13T00:15:46;20.46;;;13.27;;
60336;SDS011;46978;50.288;28.624;2022-10-13T00:16:48;23.25;;;13.12;;
60336;SDS011;46978;50.288;28.624;2022-10-13T00:17:50;22.19;;;13.55;;
60336;SDS011;46978;50.288;28.624;2022-10-13T00:18:52;23.47;;;13.15;;
60336;SDS011;46978;50.288;28.624;2022-10-13T00:19:54;20.59;;;13.33;;
60336;SDS011;46978;50.288;28.624;2022-10-13T00:20:56;22.39;;;13.77;;
60336;SDS011;46978;50.288;28.624;2022-10-13T00:21:58;23.51;;;13.49;;
60336;SDS011;46978;50.288;28.624;2022-10-13T00:23:00;24.94;;;13.35;;
60336;SDS011;46978;50.288;28.624;2022-10-13T00:24:02;22.25;;;13.04;;
60336;SDS011;46978;50.288;28.624;2022-10-13T00:25:04;22.49;;;13.38;;
60336;SDS011;46978;50.288;28.624;2022-10-13T00:26:08;23.39;;;13.80;;
60336;SDS011;46978;50.288;28.624;2022-10-13T00:27:11;25.54;;;13.93;;
60336;SDS011;46978;50.288;28.624;2022-10-13T00:28:14;22.86;;;13.89;;
60336;SDS011;46978;50.288;28.624;2022-10-13T00:29:17;25.82;;;13.35;;
60336;SDS011;46978;50.288;28.624;2022-10-13T00:30:19;23.43;;;12.94;;
60336;SDS011;46978;50.288;28.624;2022-10-13T00:31:22;26.03;;;14.05;;
60336;SDS011;46978;50.288;28.624;2022-10-13T00:32:26;23.00;;;13.64;;
60336;SDS011;46978;50.288;28.624;2022-10-13T00:33:29;23.82;;;13.20;;
60336;SDS011;46978;50.288;28.624;2022-10-13T00:34:31;21.59;;;12.55;;
60336;SDS011;46978;50.288;28.624;2022-10-13T00:35:32;21.86;;;13.15;;
60336;SDS011;46978;50.288;28.624;2022-10-13T00:36:34;21.94;;;12.33;;
60336;SDS011;46978;50.288;28.624;2022-10-13T00:37:36;24.42;;;13.14;;
60336;SDS011;46978;50.288;28.624;2022-10-13T00:38:38;22.14;;;13.67;;
60336;SDS011;46978;50.288;28.624;2022-10-13T00:39:40;23.61;;;14.06;;
60336;SDS011;46978;50.288;28.624;2022-10-13T00:40:52;19.74;;;12.36;;
60336;SDS011;46978;50.288;28.624;2022-10-13T00:41:55;22.31;;;12.92;;
60336;SDS011;46978;50.288;28.624;2022-10-13T00:42:58;23.94;;;13.21;;
60336;SDS011;46978;50.288;28.624;2022-10-13T00:46:29;26.19;;;11.83;;
60336;SDS011;46978;50.288;28.624;2022-10-13T00:47:40;22.66;;;13.17;;
60336;SDS011;46978;50.288;28.624;2022-10-13T00:48:44;22.94;;;12.51;;
60336;SDS011;46978;50.288;28.624;2022-10-13T00:49:47;20.17;;;12.63;;
60336;SDS011;46978;50.288;28.624;2022-10-13T00:50:50;21.91;;;12.43;;
60336;SDS011;46978;50.288;28.624;2022-10-13T00:51:53;21.87;;;12.66;;
60336;SDS011;46978;50.288;28.624;2022-10-13T00:52:55;20.44;;;12.56;;
60336;SDS011;46978;50.288;28.624;2022-10-13T00:53:59;20.25;;;12.06;;
60336;SDS011;46978;50.288;28.624;2022-10-13T00:55:03;20.62;;;12.35;;
60336;SDS011;46978;50.288;28.624;2022-10-13T00:56:08;22.93;;;12.92;;
60336;SDS011;46978;50.288;28.624;2022-10-13T00:57:13;21.64;;;13.19;;
60336;SDS011;46978;50.288;28.624;2022-10-13T00:58:17;22.87;;;12.69;;
60336;SDS011;46978;50.288;28.624;2022-10-13T00:59:25;22.42;;;12.67;;
60336;SDS011;46978;50.288;28.624;2022-10-13T01:00:28;23.61;;;12.72;;
60336;SDS011;46978;50.288;28.624;2022-10-13T01:01:30;19.86;;;12.79;;
60336;SDS011;46978;50.288;28.624;2022-10-13T01:02:34;21.51;;;11.99;;
60336;SDS011;46978;50.288;28.624;2022-10-13T01:03:37;20.20;;;12.63;;
60336;SDS011;46978;50.288;28.624;2022-10-13T01:04:39;22.39;;;12.14;;
60336;SDS011;46978;50.288;28.624;2022-10-13T01:05:44;22.08;;;12.42;;
60336;SDS011;46978;50.288;28.624;2022-10-13T01:06:48;19.89;;;11.66;;
60336;SDS011;46978;50.288;28.624;2022-10-13T01:07:50;20.88;;;11.70;;
60336;SDS011;46978;50.288;28.624;2022-10-13T01:08:53;19.89;;;12.24;;
60336;SDS011;46978;50.288;28.624;2022-10-13T01:09:54;23.27;;;11.91;;
60336;SDS011;46978;50.288;28.624;2022-10-13T01:13:24;22.69;;;11.93;;
60336;SDS011;46978;50.288;28.624;2022-10-13T01:17:51;20.44;;;10.99;;
60336;SDS011;46978;50.288;28.624;2022-10-13T01:21:39;23.06;;;11.54;;
60336;SDS011;46978;50.288;28.624;2022-10-13T01:24:40;20.21;;;11.01;;
60336;SDS011;46978;50.288;28.624;2022-10-13T01:30:13;22.86;;;11.41;;
60336;SDS011;46978;50.288;28.624;2022-10-13T01:31:23;21.21;;;11.64;;
60336;SDS011;46978;50.288;28.624;2022-10-13T01:35:43;21.19;;;11.61;;
60336;SDS011;46978;50.288;28.624;2022-10-13T01:42:26;20.18;;;11.62;;
60336;SDS011;46978;50.288;28.624;2022-10-13T01:43:39;20.36;;;11.83;;
60336;SDS011;46978;50.288;28.624;2022-10-13T01:44:48;19.79;;;11.16;;
60336;SDS011;46978;50.288;28.624;2022-10-13T01:45:50;17.07;;;10.79;;
60336;SDS011;46978;50.288;28.624;2022-10-13T01:46:57;21.92;;;11.74;;
60336;SDS011;46978;50.288;28.624;2022-10-13T01:48:01;19.58;;;11.59;;
60336;SDS011;46978;50.288;28.624;2022-10-13T01:49:08;18.49;;;11.07;;
60336;SDS011;46978;50.288;28.624;2022-10-13T01:50:12;22.84;;;11.83;;
60336;SDS011;46978;50.288;28.624;2022-10-13T01:51:17;20.31;;;11.63;;
60336;SDS011;46978;50.288;28.624;2022-10-13T01:52:21;20.67;;;11.51;;
60336;SDS011;46978;50.288;28.624;2022-10-13T01:53:26;19.32;;;11.09;;
60336;SDS011;46978;50.288;28.624;2022-10-13T01:54:30;19.46;;;10.64;;
60336;SDS011;46978;50.288;28.624;2022-10-13T01:55:33;19.39;;;11.02;;
60336;SDS011;46978;50.288;28.624;2022-10-13T01:56:35;19.39;;;11.51;;
60336;SDS011;46978;50.288;28.624;2022-10-13T01:57:38;18.25;;;10.64;;
60336;SDS011;46978;50.288;28.624;2022-10-13T01:58:41;19.21;;;10.87;;
60336;SDS011;46978;50.288;28.624;2022-10-13T01:59:44;21.82;;;11.26;;
60336;SDS011;46978;50.288;28.624;2022-10-13T02:00:59;18.71;;;10.71;;
60336;SDS011;46978;50.288;28.624;2022-10-13T02:03:25;20.06;;;10.73;;
60336;SDS011;46978;50.288;28.624;2022-10-13T02:08:18;18.25;;;9.99;;
60336;SDS011;46978;50.288;28.624;2022-10-13T02:10:55;20.02;;;10.66;;
60336;SDS011;46978;50.288;28.624;2022-10-13T02:12:13;17.56;;;10.48;;
60336;SDS011;46978;50.288;28.624;2022-10-13T02:13:23;16.89;;;10.69;;
60336;SDS011;46978;50.288;28.624;2022-10-13T02:14:28;19.92;;;10.63;;
60336;SDS011;46978;50.288;28.624;2022-10-13T02:15:54;19.02;;;10.95;;
60336;SDS011;46978;50.288;28.624;2022-10-13T02:16:41;20.16;;;10.02;;
60336;SDS011;46978;50.288;28.624;2022-10-13T02:17:44;20.16;;;11.30;;
60336;SDS011;46978;50.288;28.624;2022-10-13T02:18:46;19.56;;;10.75;;
60336;SDS011;46978;50.288;28.624;2022-10-13T02:19:48;18.19;;;10.39;;
60336;SDS011;46978;50.288;28.624;2022-10-13T02:20:50;17.43;;;10.32;;
60336;SDS011;46978;50.288;28.624;2022-10-13T02:21:54;19.21;;;10.62;;
60336;SDS011;46978;50.288;28.624;2022-10-13T02:23:02;18.74;;;10.73;;
60336;SDS011;46978;50.288;28.624;2022-10-13T02:24:06;19.65;;;10.93;;
60336;SDS011;46978;50.288;28.624;2022-10-13T02:25:09;19.62;;;10.79;;
60336;SDS011;46978;50.288;28.624;2022-10-13T02:26:12;21.27;;;10.89;;
60336;SDS011;46978;50.288;28.624;2022-10-13T02:27:14;21.66;;;11.10;;
60336;SDS011;46978;50.288;28.624;2022-10-13T02:28:16;17.95;;;10.71;;
60336;SDS011;46978;50.288;28.624;2022-10-13T02:29:19;18.81;;;10.39;;
60336;SDS011;46978;50.288;28.624;2022-10-13T02:30:22;17.42;;;10.46;;
60336;SDS011;46978;50.288;28.624;2022-10-13T02:31:26;19.87;;;10.59;;
60336;SDS011;46978;50.288;28.624;2022-10-13T02:32:28;16.63;;;9.85;;
60336;SDS011;46978;50.288;28.624;2022-10-13T02:33:30;14.55;;;9.07;;
60336;SDS011;46978;50.288;28.624;2022-10-13T02:34:32;18.79;;;10.24;;
60336;SDS011;46978;50.288;28.624;2022-10-13T02:35:33;17.89;;;9.86;;
60336;SDS011;46978;50.288;28.624;2022-10-13T02:36:35;17.77;;;9.87;;
60336;SDS011;46978;50.288;28.624;2022-10-13T02:37:38;20.05;;;9.74;;
60336;SDS011;46978;50.288;28.624;2022-10-13T02:38:39;18.38;;;11.08;;
60336;SDS011;46978;50.288;28.624;2022-10-13T02:39:41;15.77;;;10.39;;
60336;SDS011;46978;50.288;28.624;2022-10-13T02:40:43;18.27;;;9.97;;
60336;SDS011;46978;50.288;28.624;2022-10-13T02:41:45;17.51;;;10.53;;
60336;SDS011;46978;50.288;28.624;2022-10-13T02:42:46;20.03;;;9.90;;
60336;SDS011;46978;50.288;28.624;2022-10-13T02:43:48;19.00;;;9.99;;
60336;SDS011;46978;50.288;28.624;2022-10-13T02:44:50;19.52;;;10.06;;
60336;SDS011;46978;50.288;28.624;2022-10-13T02:45:51;19.14;;;10.64;;
60336;SDS011;46978;50.288;28.624;2022-10-13T02:46:53;19.37;;;10.17;;
60336;SDS011;46978;50.288;28.624;2022-10-13T02:47:55;17.56;;;10.37;;
60336;SDS011;46978;50.288;28.624;2022-10-13T02:48:57;15.58;;;9.61;;
60336;SDS011;46978;50.288;28.624;2022-10-13T02:49:58;14.47;;;9.79;;
60336;SDS011;46978;50.288;28.624;2022-10-13T02:51:00;16.91;;;10.03;;
60336;SDS011;46978;50.288;28.624;2022-10-13T02:52:02;19.99;;;10.66;;
60336;SDS011;46978;50.288;28.624;2022-10-13T02:53:04;17.51;;;9.99;;
60336;SDS011;46978;50.288;28.624;2022-10-13T02:54:06;14.54;;;9.66;;
60336;SDS011;46978;50.288;28.624;2022-10-13T02:55:08;17.13;;;9.72;;
60336;SDS011;46978;50.288;28.624;2022-10-13T02:56:10;20.37;;;10.13;;
60336;SDS011;46978;50.288;28.624;2022-10-13T02:57:11;17.94;;;10.70;;
60336;SDS011;46978;50.288;28.624;2022-10-13T02:58:13;15.56;;;10.62;;
60336;SDS011;46978;50.288;28.624;2022-10-13T02:59:15;15.97;;;9.66;;
60336;SDS011;46978;50.288;28.624;2022-10-13T03:00:17;17.28;;;10.13;;
60336;SDS011;46978;50.288;28.624;2022-10-13T03:01:21;18.07;;;9.92;;
60336;SDS011;46978;50.288;28.624;2022-10-13T03:02:24;16.04;;;9.54;;
60336;SDS011;46978;50.288;28.624;2022-10-13T03:03:27;19.90;;;10.19;;
60336;SDS011;46978;50.288;28.624;2022-10-13T03:04:28;22.71;;;10.12;;
60336;SDS011;46978;50.288;28.624;2022-10-13T03:05:30;20.23;;;9.89;;
60336;SDS011;46978;50.288;28.624;2022-10-13T03:06:32;17.47;;;10.08;;
60336;SDS011;46978;50.288;28.624;2022-10-13T03:07:34;18.71;;;10.67;;
60336;SDS011;46978;50.288;28.624;2022-10-13T03:08:36;18.92;;;10.63;;
60336;SDS011;46978;50.288;28.624;2022-10-13T03:09:38;19.52;;;10.26;;
60336;SDS011;46978;50.288;28.624;2022-10-13T03:10:40;19.29;;;10.08;;
60336;SDS011;46978;50.288;28.624;2022-10-13T03:11:42;20.31;;;10.06;;
60336;SDS011;46978;50.288;28.624;2022-10-13T03:12:43;19.47;;;10.06;;
60336;SDS011;46978;50.288;28.624;2022-10-13T03:13:45;18.78;;;10.53;;
60336;SDS011;46978;50.288;28.624;2022-10-13T03:14:47;20.91;;;10.21;;
60336;SDS011;46978;50.288;28.624;2022-10-13T03:15:49;18.27;;;10.24;;
60336;SDS011;46978;50.288;28.624;2022-10-13T03:16:51;20.07;;;11.10;;
60336;SDS011;46978;50.288;28.624;2022-10-13T03:17:52;16.96;;;10.11;;
60336;SDS011;46978;50.288;28.624;2022-10-13T03:18:54;17.09;;;9.67;;
60336;SDS011;46978;50.288;28.624;2022-10-13T03:19:56;16.69;;;10.07;;
60336;SDS011;46978;50.288;28.624;2022-10-13T03:20:58;15.13;;;9.38;;
60336;SDS011;46978;50.288;28.624;2022-10-13T03:22:02;16.85;;;9.79;;
60336;SDS011;46978;50.288;28.624;2022-10-13T03:23:04;16.64;;;9.35;;
60336;SDS011;46978;50.288;28.624;2022-10-13T03:24:06;19.93;;;10.08;;
60336;SDS011;46978;50.288;28.624;2022-10-13T03:25:08;16.14;;;10.03;;
60336;SDS011;46978;50.288;28.624;2022-10-13T03:26:10;17.34;;;9.81;;
60336;SDS011;46978;50.288;28.624;2022-10-13T03:27:12;18.61;;;10.64;;
60336;SDS011;46978;50.288;28.624;2022-10-13T03:28:14;16.12;;;9.37;;
60336;SDS011;46978;50.288;28.624;2022-10-13T03:29:16;16.74;;;9.78;;
60336;SDS011;46978;50.288;28.624;2022-10-13T03:30:18;16.73;;;9.67;;
60336;SDS011;46978;50.288;28.624;2022-10-13T03:31:20;17.86;;;10.04;;
60336;SDS011;46978;50.288;28.624;2022-10-13T03:32:21;20.48;;;9.89;;
60336;SDS011;46978;50.288;28.624;2022-10-13T03:33:23;15.07;;;9.06;;
60336;SDS011;46978;50.288;28.624;2022-10-13T03:34:25;16.68;;;8.97;;
60336;SDS011;46978;50.288;28.624;2022-10-13T03:35:27;18.69;;;9.95;;
60336;SDS011;46978;50.288;28.624;2022-10-13T03:36:29;17.47;;;9.71;;
60336;SDS011;46978;50.288;28.624;2022-10-13T03:37:30;15.66;;;9.64;;
60336;SDS011;46978;50.288;28.624;2022-10-13T03:38:33;16.36;;;9.65;;
60336;SDS011;46978;50.288;28.624;2022-10-13T03:39:35;18.25;;;10.14;;
60336;SDS011;46978;50.288;28.624;2022-10-13T03:40:37;14.56;;;9.19;;
60336;SDS011;46978;50.288;28.624;2022-10-13T03:41:39;17.89;;;9.84;;
60336;SDS011;46978;50.288;28.624;2022-10-13T03:42:41;16.25;;;9.41;;
60336;SDS011;46978;50.288;28.624;2022-10-13T03:43:43;16.32;;;9.25;;
60336;SDS011;46978;50.288;28.624;2022-10-13T03:44:45;15.22;;;9.26;;
60336;SDS011;46978;50.288;28.624;2022-10-13T03:45:58;19.87;;;10.08;;
60336;SDS011;46978;50.288;28.624;2022-10-13T03:47:01;17.57;;;10.01;;
60336;SDS011;46978;50.288;28.624;2022-10-13T03:48:03;22.16;;;10.71;;
60336;SDS011;46978;50.288;28.624;2022-10-13T03:49:05;18.46;;;9.79;;
60336;SDS011;46978;50.288;28.624;2022-10-13T03:50:08;20.11;;;10.78;;
60336;SDS011;46978;50.288;28.624;2022-10-13T03:51:12;17.21;;;9.59;;
60336;SDS011;46978;50.288;28.624;2022-10-13T03:52:16;17.66;;;9.81;;
60336;SDS011;46978;50.288;28.624;2022-10-13T03:53:18;16.55;;;10.14;;
60336;SDS011;46978;50.288;28.624;2022-10-13T03:54:20;16.00;;;9.91;;
60336;SDS011;46978;50.288;28.624;2022-10-13T03:55:21;17.15;;;10.61;;
60336;SDS011;46978;50.288;28.624;2022-10-13T03:56:24;18.25;;;9.34;;
60336;SDS011;46978;50.288;28.624;2022-10-13T03:57:27;16.14;;;9.64;;
60336;SDS011;46978;50.288;28.624;2022-10-13T03:58:29;16.07;;;9.86;;
60336;SDS011;46978;50.288;28.624;2022-10-13T03:59:31;16.55;;;10.04;;
60336;SDS011;46978;50.288;28.624;2022-10-13T04:00:36;18.61;;;9.80;;
60336;SDS011;46978;50.288;28.624;2022-10-13T04:01:38;19.00;;;9.81;;
60336;SDS011;46978;50.288;28.624;2022-10-13T04:02:40;17.82;;;9.91;;
60336;SDS011;46978;50.288;28.624;2022-10-13T04:03:41;18.99;;;10.27;;
60336;SDS011;46978;50.288;28.624;2022-10-13T04:04:43;18.44;;;9.90;;
60336;SDS011;46978;50.288;28.624;2022-10-13T04:05:45;18.57;;;10.01;;
60336;SDS011;46978;50.288;28.624;2022-10-13T04:06:47;18.71;;;9.79;;
60336;SDS011;46978;50.288;28.624;2022-10-13T04:07:49;20.86;;;9.07;;
60336;SDS011;46978;50.288;28.624;2022-10-13T04:08:51;19.58;;;9.68;;
60336;SDS011;46978;50.288;28.624;2022-10-13T04:09:53;17.77;;;9.46;;
60336;SDS011;46978;50.288;28.624;2022-10-13T04:10:58;18.93;;;9.34;;
60336;SDS011;46978;50.288;28.624;2022-10-13T04:12:01;20.02;;;9.76;;
60336;SDS011;46978;50.288;28.624;2022-10-13T04:13:03;19.93;;;10.09;;
60336;SDS011;46978;50.288;28.624;2022-10-13T04:14:05;19.97;;;10.32;;
60336;SDS011;46978;50.288;28.624;2022-10-13T04:15:07;17.84;;;10.02;;
60336;SDS011;46978;50.288;28.624;2022-10-13T04:16:13;17.53;;;9.71;;
60336;SDS011;46978;50.288;28.624;2022-10-13T04:17:22;15.89;;;8.58;;
60336;SDS011;46978;50.288;28.624;2022-10-13T04:18:23;18.77;;;10.05;;
60336;SDS011;46978;50.288;28.624;2022-10-13T04:19:25;16.76;;;9.09;;
60336;SDS011;46978;50.288;28.624;2022-10-13T04:20:27;17.21;;;9.72;;
60336;SDS011;46978;50.288;28.624;2022-10-13T04:21:30;18.13;;;9.83;;
60336;SDS011;46978;50.288;28.624;2022-10-13T04:22:33;17.09;;;9.64;;
60336;SDS011;46978;50.288;28.624;2022-10-13T04:23:35;15.97;;;9.04;;
60336;SDS011;46978;50.288;28.624;2022-10-13T04:24:38;17.32;;;9.88;;
60336;SDS011;46978;50.288;28.624;2022-10-13T04:25:39;15.36;;;9.93;;
60336;SDS011;46978;50.288;28.624;2022-10-13T04:26:41;15.71;;;9.29;;
60336;SDS011;46978;50.288;28.624;2022-10-13T04:27:44;17.17;;;10.09;;
60336;SDS011;46978;50.288;28.624;2022-10-13T04:28:49;18.57;;;9.42;;
60336;SDS011;46978;50.288;28.624;2022-10-13T04:29:52;20.71;;;9.96;;
60336;SDS011;46978;50.288;28.624;2022-10-13T04:30:54;21.46;;;10.42;;
60336;SDS011;46978;50.288;28.624;2022-10-13T04:31:57;17.47;;;9.15;;
60336;SDS011;46978;50.288;28.624;2022-10-13T04:33:00;15.44;;;10.17;;
60336;SDS011;46978;50.288;28.624;2022-10-13T04:34:02;18.45;;;10.05;;
60336;SDS011;46978;50.288;28.624;2022-10-13T04:35:04;18.20;;;9.87;;
60336;SDS011;46978;50.288;28.624;2022-10-13T04:36:07;16.99;;;9.69;;
60336;SDS011;46978;50.288;28.624;2022-10-13T04:37:10;22.31;;;10.32;;
60336;SDS011;46978;50.288;28.624;2022-10-13T04:38:12;17.95;;;10.27;;
60336;SDS011;46978;50.288;28.624;2022-10-13T04:39:14;20.44;;;10.69;;
60336;SDS011;46978;50.288;28.624;2022-10-13T04:40:16;17.21;;;9.79;;
60336;SDS011;46978;50.288;28.624;2022-10-13T04:41:18;15.63;;;9.51;;
60336;SDS011;46978;50.288;28.624;2022-10-13T04:42:20;16.25;;;9.79;;
60336;SDS011;46978;50.288;28.624;2022-10-13T04:43:22;20.01;;;10.43;;
60336;SDS011;46978;50.288;28.624;2022-10-13T04:44:23;18.01;;;10.79;;
60336;SDS011;46978;50.288;28.624;2022-10-13T04:45:26;18.73;;;9.97;;
60336;SDS011;46978;50.288;28.624;2022-10-13T04:46:28;23.25;;;10.89;;
60336;SDS011;46978;50.288;28.624;2022-10-13T04:47:30;20.66;;;10.79;;
60336;SDS011;46978;50.288;28.624;2022-10-13T04:48:32;17.37;;;10.01;;
60336;SDS011;46978;50.288;28.624;2022-10-13T04:49:33;17.66;;;10.23;;
60336;SDS011;46978;50.288;28.624;2022-10-13T04:50:35;20.40;;;9.96;;
60336;SDS011;46978;50.288;28.624;2022-10-13T04:51:37;15.61;;;10.24;;
60336;SDS011;46978;50.288;28.624;2022-10-13T04:52:39;19.17;;;10.35;;
60336;SDS011;46978;50.288;28.624;2022-10-13T04:53:41;18.26;;;10.26;;
60336;SDS011;46978;50.288;28.624;2022-10-13T04:54:43;17.83;;;10.91;;
60336;SDS011;46978;50.288;28.624;2022-10-13T04:55:44;17.41;;;9.56;;
60336;SDS011;46978;50.288;28.624;2022-10-13T04:56:46;17.69;;;9.91;;
60336;SDS011;46978;50.288;28.624;2022-10-13T04:57:48;24.25;;;10.51;;
60336;SDS011;46978;50.288;28.624;2022-10-13T04:58:49;20.85;;;10.89;;
60336;SDS011;46978;50.288;28.624;2022-10-13T04:59:51;15.87;;;9.41;;
60336;SDS011;46978;50.288;28.624;2022-10-13T05:00:53;19.14;;;10.82;;
60336;SDS011;46978;50.288;28.624;2022-10-13T05:01:55;21.65;;;10.30;;
60336;SDS011;46978;50.288;28.624;2022-10-13T05:02:57;20.04;;;10.45;;
60336;SDS011;46978;50.288;28.624;2022-10-13T05:03:59;18.29;;;10.69;;
60336;SDS011;46978;50.288;28.624;2022-10-13T05:05:03;21.40;;;11.53;;
60336;SDS011;46978;50.288;28.624;2022-10-13T05:06:05;18.99;;;11.01;;
60336;SDS011;46978;50.288;28.624;2022-10-13T05:07:09;17.66;;;10.51;;
60336;SDS011;46978;50.288;28.624;2022-10-13T05:08:11;17.64;;;10.51;;
60336;SDS011;46978;50.288;28.624;2022-10-13T05:09:13;20.09;;;10.82;;
60336;SDS011;46978;50.288;28.624;2022-10-13T05:10:15;18.71;;;10.62;;
60336;SDS011;46978;50.288;28.624;2022-10-13T05:11:18;22.36;;;10.99;;
60336;SDS011;46978;50.288;28.624;2022-10-13T05:12:20;20.87;;;10.81;;
60336;SDS011;46978;50.288;28.624;2022-10-13T05:13:22;18.05;;;11.13;;
60336;SDS011;46978;50.288;28.624;2022-10-13T05:14:25;19.29;;;10.72;;
60336;SDS011;46978;50.288;28.624;2022-10-13T05:15:26;19.08;;;11.05;;
60336;SDS011;46978;50.288;28.624;2022-10-13T05:16:28;17.99;;;11.29;;
60336;SDS011;46978;50.288;28.624;2022-10-13T05:17:30;20.22;;;10.55;;
60336;SDS011;46978;50.288;28.624;2022-10-13T05:18:32;21.47;;;10.91;;
60336;SDS011;46978;50.288;28.624;2022-10-13T05:19:33;23.66;;;11.41;;
60336;SDS011;46978;50.288;28.624;2022-10-13T05:20:35;20.71;;;11.11;;
60336;SDS011;46978;50.288;28.624;2022-10-13T05:21:37;17.79;;;10.99;;
60336;SDS011;46978;50.288;28.624;2022-10-13T05:22:39;18.50;;;10.74;;
60336;SDS011;46978;50.288;28.624;2022-10-13T05:23:41;17.53;;;10.85;;
60336;SDS011;46978;50.288;28.624;2022-10-13T05:24:43;20.57;;;12.14;;
60336;SDS011;46978;50.288;28.624;2022-10-13T05:25:45;23.23;;;12.29;;
60336;SDS011;46978;50.288;28.624;2022-10-13T05:26:47;24.04;;;11.79;;
60336;SDS011;46978;50.288;28.624;2022-10-13T05:27:48;21.40;;;12.02;;
60336;SDS011;46978;50.288;28.624;2022-10-13T05:28:50;22.53;;;12.27;;
60336;SDS011;46978;50.288;28.624;2022-10-13T05:29:51;21.45;;;11.22;;
60336;SDS011;46978;50.288;28.624;2022-10-13T05:30:53;20.24;;;11.25;;
60336;SDS011;46978;50.288;28.624;2022-10-13T05:31:55;24.11;;;11.76;;
60336;SDS011;46978;50.288;28.624;2022-10-13T05:32:57;20.39;;;12.27;;
60336;SDS011;46978;50.288;28.624;2022-10-13T05:33:58;22.58;;;11.79;;
60336;SDS011;46978;50.288;28.624;2022-10-13T05:35:01;19.83;;;11.52;;
60336;SDS011;46978;50.288;28.624;2022-10-13T05:36:04;19.63;;;10.75;;
60336;SDS011;46978;50.288;28.624;2022-10-13T05:37:07;19.49;;;11.11;;
60336;SDS011;46978;50.288;28.624;2022-10-13T05:38:09;16.01;;;10.70;;
60336;SDS011;46978;50.288;28.624;2022-10-13T05:39:11;19.39;;;10.75;;
60336;SDS011;46978;50.288;28.624;2022-10-13T05:40:13;17.31;;;10.33;;
60336;SDS011;46978;50.288;28.624;2022-10-13T05:41:15;17.16;;;9.90;;
60336;SDS011;46978;50.288;28.624;2022-10-13T05:42:17;19.56;;;10.96;;
60336;SDS011;46978;50.288;28.624;2022-10-13T05:43:18;20.33;;;10.35;;
60336;SDS011;46978;50.288;28.624;2022-10-13T05:44:20;21.09;;;10.85;;
60336;SDS011;46978;50.288;28.624;2022-10-13T05:45:22;18.91;;;10.57;;
60336;SDS011;46978;50.288;28.624;2022-10-13T05:46:25;21.18;;;10.26;;
60336;SDS011;46978;50.288;28.624;2022-10-13T05:47:27;20.95;;;10.85;;
60336;SDS011;46978;50.288;28.624;2022-10-13T05:48:29;21.75;;;9.96;;
60336;SDS011;46978;50.288;28.624;2022-10-13T05:49:31;17.23;;;9.79;;
60336;SDS011;46978;50.288;28.624;2022-10-13T05:50:33;19.33;;;10.69;;
60336;SDS011;46978;50.288;28.624;2022-10-13T05:51:46;18.32;;;9.83;;
60336;SDS011;46978;50.288;28.624;2022-10-13T05:52:49;17.38;;;9.80;;
60336;SDS011;46978;50.288;28.624;2022-10-13T05:53:58;18.67;;;10.85;;
60336;SDS011;46978;50.288;28.624;2022-10-13T05:55:03;34.40;;;17.69;;
60336;SDS011;46978;50.288;28.624;2022-10-13T05:56:13;30.91;;;17.40;;
60336;SDS011;46978;50.288;28.624;2022-10-13T05:58:28;24.34;;;11.83;;
60336;SDS011;46978;50.288;28.624;2022-10-13T05:59:31;30.26;;;18.50;;
60336;SDS011;46978;50.288;28.624;2022-10-13T06:00:35;39.32;;;23.89;;
60336;SDS011;46978;50.288;28.624;2022-10-13T06:01:38;42.42;;;25.55;;
60336;SDS011;46978;50.288;28.624;2022-10-13T06:02:43;34.83;;;20.75;;
60336;SDS011;46978;50.288;28.624;2022-10-13T06:03:46;23.48;;;14.87;;
60336;SDS011;46978;50.288;28.624;2022-10-13T06:04:50;23.40;;;12.84;;
60336;SDS011;46978;50.288;28.624;2022-10-13T06:05:55;23.88;;;14.36;;
60336;SDS011;46978;50.288;28.624;2022-10-13T06:06:57;21.29;;;10.69;;
60336;SDS011;46978;50.288;28.624;2022-10-13T06:07:59;22.14;;;12.21;;
60336;SDS011;46978;50.288;28.624;2022-10-13T06:09:01;22.53;;;12.51;;
60336;SDS011;46978;50.288;28.624;2022-10-13T06:10:03;21.78;;;11.91;;
60336;SDS011;46978;50.288;28.624;2022-10-13T06:11:06;21.25;;;11.30;;
60336;SDS011;46978;50.288;28.624;2022-10-13T06:12:08;22.23;;;11.78;;
60336;SDS011;46978;50.288;28.624;2022-10-13T06:14:32;20.08;;;9.94;;
60336;SDS011;46978;50.288;28.624;2022-10-13T06:15:33;19.66;;;9.64;;
60336;SDS011;46978;50.288;28.624;2022-10-13T06:16:36;15.77;;;9.97;;
60336;SDS011;46978;50.288;28.624;2022-10-13T06:17:37;18.17;;;10.21;;
60336;SDS011;46978;50.288;28.624;2022-10-13T06:18:39;17.35;;;9.23;;
60336;SDS011;46978;50.288;28.624;2022-10-13T06:19:41;16.89;;;9.35;;
60336;SDS011;46978;50.288;28.624;2022-10-13T06:20:43;18.84;;;8.91;;
60336;SDS011;46978;50.288;28.624;2022-10-13T06:21:44;18.29;;;8.96;;
60336;SDS011;46978;50.288;28.624;2022-10-13T06:22:46;20.72;;;8.89;;
60336;SDS011;46978;50.288;28.624;2022-10-13T06:23:48;17.94;;;9.31;;
60336;SDS011;46978;50.288;28.624;2022-10-13T06:24:50;19.52;;;10.05;;
60336;SDS011;46978;50.288;28.624;2022-10-13T06:25:51;19.24;;;9.99;;
60336;SDS011;46978;50.288;28.624;2022-10-13T06:26:54;17.50;;;9.45;;
60336;SDS011;46978;50.288;28.624;2022-10-13T06:27:56;19.77;;;10.21;;
60336;SDS011;46978;50.288;28.624;2022-10-13T06:28:57;17.04;;;10.06;;
60336;SDS011;46978;50.288;28.624;2022-10-13T06:29:59;17.49;;;10.07;;
60336;SDS011;46978;50.288;28.624;2022-10-13T06:31:02;18.71;;;10.17;;
60336;SDS011;46978;50.288;28.624;2022-10-13T06:32:25;19.28;;;9.30;;
60336;SDS011;46978;50.288;28.624;2022-10-13T06:33:26;21.33;;;10.54;;
60336;SDS011;46978;50.288;28.624;2022-10-13T06:34:28;16.88;;;9.04;;
60336;SDS011;46978;50.288;28.624;2022-10-13T06:35:30;15.62;;;8.30;;
60336;SDS011;46978;50.288;28.624;2022-10-13T06:36:32;19.25;;;8.38;;
60336;SDS011;46978;50.288;28.624;2022-10-13T06:37:33;17.05;;;8.52;;
60336;SDS011;46978;50.288;28.624;2022-10-13T06:38:35;14.35;;;8.42;;
60336;SDS011;46978;50.288;28.624;2022-10-13T06:39:37;16.01;;;8.09;;